Portada
METAR-TAF:

METAR-TAF

Aeroports :

Visakhapatnam, Índia

latitud: 17-43-16N, longitud: 83-13-28E, altitud: 6 m

Observació

L'informe es va fer fa 49 minuts, a les 18:00 UTC
Vent 2 kt amb direcció variable
Temperatura 27°C
Humitat 84%
Pressió 1013 hPa
Visibilitat: 5000 m
Escasses núvols a una alçada de 1800 ft
Núvols disperses a una alçada de 9000 ft
boirina

METAR: VOVZ 161800Z VRB02KT 5000 BR FEW018 SCT090 27/24 Q1013 NOSIG

Hora: 00:19 (18:49 UTC)


TAF: manca

Observacions i pronòstics meteorològics de més de 4000 aeroports (METAR i TAF).

Les estacions disponibles són els punts grocs i vermells al mapa.

Posi el ratolí al punt desitjat per veure el nom de l'estació.

Feu clic per veure les observacions i els pronòstics meteorològics.

Per canviar el mapa: feu clic els botons verds amb una creu de color negre per apropar; al botó verd amb un guió per allunyar la imatge; o en les fletxes verdes per a mapes adjacents.


METAR-TAF: